sensor_id;sensor_type;location;lat;lon;timestamp;pressure;altitude;pressure_sealevel;temperature
69435;BMP180;56625;54.322;18.582;2024-02-21T00:00:11;101019.20;;;6.10
69435;BMP180;56625;54.322;18.582;2024-02-21T00:02:59;101012.40;;;6.10
69435;BMP180;56625;54.322;18.582;2024-02-21T00:05:30;101008.20;;;6.16
69435;BMP180;56625;54.322;18.582;2024-02-21T00:07:59;101009.20;;;6.20
69435;BMP180;56625;54.322;18.582;2024-02-21T00:10:28;101005.20;;;6.20
69435;BMP180;56625;54.322;18.582;2024-02-21T00:12:57;101001.80;;;6.20
69435;BMP180;56625;54.322;18.582;2024-02-21T00:15:25;100999.40;;;6.20
69435;BMP180;56625;54.322;18.582;2024-02-21T00:17:54;100996.20;;;6.20
69435;BMP180;56625;54.322;18.582;2024-02-21T00:20:22;100987.80;;;6.22
69435;BMP180;56625;54.322;18.582;2024-02-21T00:22:50;100984.60;;;6.30
69435;BMP180;56625;54.322;18.582;2024-02-21T00:25:19;100988.80;;;6.30
69435;BMP180;56625;54.322;18.582;2024-02-21T00:27:48;100995.80;;;6.28
69435;BMP180;56625;54.322;18.582;2024-02-21T00:30:16;100991.00;;;6.20
69435;BMP180;56625;54.322;18.582;2024-02-21T00:32:44;100992.00;;;6.20
69435;BMP180;56625;54.322;18.582;2024-02-21T00:35:14;100990.80;;;6.20
69435;BMP180;56625;54.322;18.582;2024-02-21T00:37:42;100992.00;;;6.12
69435;BMP180;56625;54.322;18.582;2024-02-21T00:40:11;100988.60;;;6.12
69435;BMP180;56625;54.322;18.582;2024-02-21T00:42:39;100981.20;;;6.10
69435;BMP180;56625;54.322;18.582;2024-02-21T00:45:08;100984.00;;;6.10
69435;BMP180;56625;54.322;18.582;2024-02-21T00:47:36;100980.20;;;6.10
69435;BMP180;56625;54.322;18.582;2024-02-21T00:50:05;100978.40;;;6.10
69435;BMP180;56625;54.322;18.582;2024-02-21T00:52:37;100970.20;;;6.10
69435;BMP180;56625;54.322;18.582;2024-02-21T00:55:06;100971.20;;;6.10
69435;BMP180;56625;54.322;18.582;2024-02-21T00:57:35;100971.60;;;6.10
69435;BMP180;56625;54.322;18.582;2024-02-21T01:00:04;100969.60;;;6.06
69435;BMP180;56625;54.322;18.582;2024-02-21T01:02:32;100960.00;;;6.02
69435;BMP180;56625;54.322;18.582;2024-02-21T01:05:02;100961.80;;;6.04
69435;BMP180;56625;54.322;18.582;2024-02-21T01:07:30;100957.60;;;6.10
69435;BMP180;56625;54.322;18.582;2024-02-21T01:09:58;100957.20;;;6.04
69435;BMP180;56625;54.322;18.582;2024-02-21T01:12:27;100954.40;;;6.10
69435;BMP180;56625;54.322;18.582;2024-02-21T01:14:55;100952.40;;;6.10
69435;BMP180;56625;54.322;18.582;2024-02-21T01:17:23;100954.40;;;6.10
69435;BMP180;56625;54.322;18.582;2024-02-21T01:19:51;100951.80;;;6.10
69435;BMP180;56625;54.322;18.582;2024-02-21T01:22:19;100951.60;;;6.10
69435;BMP180;56625;54.322;18.582;2024-02-21T01:24:47;100948.40;;;6.10
69435;BMP180;56625;54.322;18.582;2024-02-21T01:27:15;100945.80;;;6.10
69435;BMP180;56625;54.322;18.582;2024-02-21T01:29:45;100940.20;;;6.10
69435;BMP180;56625;54.322;18.582;2024-02-21T01:32:16;100940.00;;;6.10
69435;BMP180;56625;54.322;18.582;2024-02-21T01:34:44;100938.80;;;6.14
69435;BMP180;56625;54.322;18.582;2024-02-21T01:37:12;100937.00;;;6.18
69435;BMP180;56625;54.322;18.582;2024-02-21T01:39:40;100936.00;;;6.20
69435;BMP180;56625;54.322;18.582;2024-02-21T01:42:08;100935.80;;;6.20
69435;BMP180;56625;54.322;18.582;2024-02-21T01:44:37;100937.20;;;6.20
69435;BMP180;56625;54.322;18.582;2024-02-21T01:47:06;100929.40;;;6.24
69435;BMP180;56625;54.322;18.582;2024-02-21T01:49:34;100931.20;;;6.28
69435;BMP180;56625;54.322;18.582;2024-02-21T01:52:03;100931.80;;;6.30
69435;BMP180;56625;54.322;18.582;2024-02-21T01:54:32;100930.20;;;6.30
69435;BMP180;56625;54.322;18.582;2024-02-21T01:57:01;100931.80;;;6.30
69435;BMP180;56625;54.322;18.582;2024-02-21T01:59:29;100934.40;;;6.30
69435;BMP180;56625;54.322;18.582;2024-02-21T02:01:58;100932.60;;;6.30
69435;BMP180;56625;54.322;18.582;2024-02-21T02:04:26;100919.80;;;6.30
69435;BMP180;56625;54.322;18.582;2024-02-21T02:06:55;100920.40;;;6.40
69435;BMP180;56625;54.322;18.582;2024-02-21T02:09:24;100923.00;;;6.40
69435;BMP180;56625;54.322;18.582;2024-02-21T02:11:52;100914.60;;;6.40
69435;BMP180;56625;54.322;18.582;2024-02-21T02:14:21;100909.80;;;6.40
69435;BMP180;56625;54.322;18.582;2024-02-21T02:16:49;100906.00;;;6.40
69435;BMP180;56625;54.322;18.582;2024-02-21T02:19:17;100900.80;;;6.40
69435;BMP180;56625;54.322;18.582;2024-02-21T02:21:51;100898.80;;;6.48
69435;BMP180;56625;54.322;18.582;2024-02-21T02:24:24;100890.80;;;6.50
69435;BMP180;56625;54.322;18.582;2024-02-21T02:26:56;100884.00;;;6.50
69435;BMP180;56625;54.322;18.582;2024-02-21T02:29:24;100877.60;;;6.50
69435;BMP180;56625;54.322;18.582;2024-02-21T02:31:52;100876.40;;;6.50
69435;BMP180;56625;54.322;18.582;2024-02-21T02:34:21;100873.40;;;6.50
69435;BMP180;56625;54.322;18.582;2024-02-21T02:36:49;100872.40;;;6.54
69435;BMP180;56625;54.322;18.582;2024-02-21T02:39:17;100868.80;;;6.50
69435;BMP180;56625;54.322;18.582;2024-02-21T02:41:45;100867.60;;;6.60
69435;BMP180;56625;54.322;18.582;2024-02-21T02:44:13;100863.40;;;6.60
69435;BMP180;56625;54.322;18.582;2024-02-21T02:46:42;100855.80;;;6.60
69435;BMP180;56625;54.322;18.582;2024-02-21T02:49:10;100852.20;;;6.70
69435;BMP180;56625;54.322;18.582;2024-02-21T02:51:43;100849.20;;;6.70
69435;BMP180;56625;54.322;18.582;2024-02-21T02:54:11;100841.00;;;6.70
69435;BMP180;56625;54.322;18.582;2024-02-21T02:56:39;100847.40;;;6.66
69435;BMP180;56625;54.322;18.582;2024-02-21T02:59:07;100841.60;;;6.70
69435;BMP180;56625;54.322;18.582;2024-02-21T03:01:36;100836.20;;;6.66
69435;BMP180;56625;54.322;18.582;2024-02-21T03:04:04;100837.80;;;6.70
69435;BMP180;56625;54.322;18.582;2024-02-21T03:06:32;100834.60;;;6.60
69435;BMP180;56625;54.322;18.582;2024-02-21T03:09:01;100826.80;;;6.60
69435;BMP180;56625;54.322;18.582;2024-02-21T03:11:29;100830.40;;;6.60
69435;BMP180;56625;54.322;18.582;2024-02-21T03:13:58;100826.40;;;6.60
69435;BMP180;56625;54.322;18.582;2024-02-21T03:16:26;100829.80;;;6.60
69435;BMP180;56625;54.322;18.582;2024-02-21T03:18:54;100829.20;;;6.60
69435;BMP180;56625;54.322;18.582;2024-02-21T03:21:22;100833.40;;;6.60
69435;BMP180;56625;54.322;18.582;2024-02-21T03:23:50;100826.20;;;6.60
69435;BMP180;56625;54.322;18.582;2024-02-21T03:26:18;100824.20;;;6.60
69435;BMP180;56625;54.322;18.582;2024-02-21T03:28:46;100824.20;;;6.60
69435;BMP180;56625;54.322;18.582;2024-02-21T03:31:14;100823.40;;;6.58
69435;BMP180;56625;54.322;18.582;2024-02-21T03:33:43;100820.00;;;6.56
69435;BMP180;56625;54.322;18.582;2024-02-21T03:36:15;100823.20;;;6.58
69435;BMP180;56625;54.322;18.582;2024-02-21T03:38:46;100813.00;;;6.60
69435;BMP180;56625;54.322;18.582;2024-02-21T03:41:14;100813.40;;;6.58
69435;BMP180;56625;54.322;18.582;2024-02-21T03:43:42;100818.00;;;6.60
69435;BMP180;56625;54.322;18.582;2024-02-21T03:46:11;100818.40;;;6.60
69435;BMP180;56625;54.322;18.582;2024-02-21T03:48:39;100811.80;;;6.60
69435;BMP180;56625;54.322;18.582;2024-02-21T03:51:07;100812.20;;;6.60
69435;BMP180;56625;54.322;18.582;2024-02-21T03:53:35;100810.00;;;6.60
69435;BMP180;56625;54.322;18.582;2024-02-21T03:56:04;100809.00;;;6.60
69435;BMP180;56625;54.322;18.582;2024-02-21T03:58:33;100804.40;;;6.60
69435;BMP180;56625;54.322;18.582;2024-02-21T04:01:02;100800.00;;;6.60
69435;BMP180;56625;54.322;18.582;2024-02-21T04:03:31;100797.40;;;6.60
69435;BMP180;56625;54.322;18.582;2024-02-21T04:05:59;100791.80;;;6.60
69435;BMP180;56625;54.322;18.582;2024-02-21T04:08:28;100792.00;;;6.60
69435;BMP180;56625;54.322;18.582;2024-02-21T04:10:56;100790.00;;;6.60
69435;BMP180;56625;54.322;18.582;2024-02-21T04:13:25;100791.60;;;6.60
69435;BMP180;56625;54.322;18.582;2024-02-21T04:15:53;100788.80;;;6.60
69435;BMP180;56625;54.322;18.582;2024-02-21T04:18:22;100786.20;;;6.60
69435;BMP180;56625;54.322;18.582;2024-02-21T04:20:52;100786.00;;;6.60
69435;BMP180;56625;54.322;18.582;2024-02-21T04:23:20;100781.40;;;6.60
69435;BMP180;56625;54.322;18.582;2024-02-21T04:25:48;100779.40;;;6.60
69435;BMP180;56625;54.322;18.582;2024-02-21T04:28:16;100780.40;;;6.60
69435;BMP180;56625;54.322;18.582;2024-02-21T04:30:45;100778.80;;;6.60
69435;BMP180;56625;54.322;18.582;2024-02-21T04:33:13;100776.40;;;6.58
69435;BMP180;56625;54.322;18.582;2024-02-21T04:35:41;100768.20;;;6.58
69435;BMP180;56625;54.322;18.582;2024-02-21T04:38:10;100768.00;;;6.58
69435;BMP180;56625;54.322;18.582;2024-02-21T04:40:38;100766.40;;;6.60
69435;BMP180;56625;54.322;18.582;2024-02-21T04:43:06;100755.00;;;6.54
69435;BMP180;56625;54.322;18.582;2024-02-21T04:45:34;100754.40;;;6.54
69435;BMP180;56625;54.322;18.582;2024-02-21T04:48:03;100751.00;;;6.56
69435;BMP180;56625;54.322;18.582;2024-02-21T04:50:32;100747.20;;;6.58
69435;BMP180;56625;54.322;18.582;2024-02-21T04:53:00;100744.40;;;6.58
69435;BMP180;56625;54.322;18.582;2024-02-21T04:55:28;100741.00;;;6.58
69435;BMP180;56625;54.322;18.582;2024-02-21T04:57:57;100736.20;;;6.60
69435;BMP180;56625;54.322;18.582;2024-02-21T05:00:25;100734.40;;;6.60
69435;BMP180;56625;54.322;18.582;2024-02-21T05:02:54;100727.80;;;6.60
69435;BMP180;56625;54.322;18.582;2024-02-21T05:05:22;100726.40;;;6.60
69435;BMP180;56625;54.322;18.582;2024-02-21T05:07:50;100723.60;;;6.60
69435;BMP180;56625;54.322;18.582;2024-02-21T05:10:18;100720.20;;;6.60
69435;BMP180;56625;54.322;18.582;2024-02-21T05:12:47;100719.00;;;6.60
69435;BMP180;56625;54.322;18.582;2024-02-21T05:15:15;100719.00;;;6.60
69435;BMP180;56625;54.322;18.582;2024-02-21T05:17:43;100707.00;;;6.60
69435;BMP180;56625;54.322;18.582;2024-02-21T05:20:12;100697.20;;;6.60
69435;BMP180;56625;54.322;18.582;2024-02-21T05:22:40;100695.40;;;6.60
69435;BMP180;56625;54.322;18.582;2024-02-21T05:25:09;100698.60;;;6.60
69435;BMP180;56625;54.322;18.582;2024-02-21T05:27:37;100695.20;;;6.60
69435;BMP180;56625;54.322;18.582;2024-02-21T05:30:07;100694.00;;;6.60
69435;BMP180;56625;54.322;18.582;2024-02-21T05:32:35;100692.60;;;6.60
69435;BMP180;56625;54.322;18.582;2024-02-21T05:35:03;100685.00;;;6.60
69435;BMP180;56625;54.322;18.582;2024-02-21T05:37:32;100682.00;;;6.60
69435;BMP180;56625;54.322;18.582;2024-02-21T05:40:00;100684.40;;;6.60
69435;BMP180;56625;54.322;18.582;2024-02-21T05:42:28;100682.20;;;6.60
69435;BMP180;56625;54.322;18.582;2024-02-21T05:44:56;100678.20;;;6.60
69435;BMP180;56625;54.322;18.582;2024-02-21T05:47:24;100679.80;;;6.60
69435;BMP180;56625;54.322;18.582;2024-02-21T05:49:52;100675.20;;;6.60
69435;BMP180;56625;54.322;18.582;2024-02-21T05:52:22;100673.40;;;6.60
69435;BMP180;56625;54.322;18.582;2024-02-21T05:54:50;100667.80;;;6.60
69435;BMP180;56625;54.322;18.582;2024-02-21T05:57:18;100659.80;;;6.60
69435;BMP180;56625;54.322;18.582;2024-02-21T05:59:47;100663.00;;;6.68
69435;BMP180;56625;54.322;18.582;2024-02-21T06:02:15;100664.20;;;6.68
69435;BMP180;56625;54.322;18.582;2024-02-21T06:04:43;100659.00;;;6.70
69435;BMP180;56625;54.322;18.582;2024-02-21T06:07:12;100655.40;;;6.68
69435;BMP180;56625;54.322;18.582;2024-02-21T06:09:41;100647.80;;;6.70
69435;BMP180;56625;54.322;18.582;2024-02-21T06:12:09;100648.80;;;6.70
69435;BMP180;56625;54.322;18.582;2024-02-21T06:14:37;100650.00;;;6.70
69435;BMP180;56625;54.322;18.582;2024-02-21T06:17:05;100645.20;;;6.70
69435;BMP180;56625;54.322;18.582;2024-02-21T06:19:33;100646.00;;;6.70
69435;BMP180;56625;54.322;18.582;2024-02-21T06:22:02;100639.80;;;6.70
69435;BMP180;56625;54.322;18.582;2024-02-21T06:24:36;100630.80;;;6.70
69435;BMP180;56625;54.322;18.582;2024-02-21T06:27:05;100620.80;;;6.70
69435;BMP180;56625;54.322;18.582;2024-02-21T06:29:37;100614.00;;;6.70
69435;BMP180;56625;54.322;18.582;2024-02-21T06:32:06;100610.40;;;6.70
69435;BMP180;56625;54.322;18.582;2024-02-21T06:34:34;100610.40;;;6.70
69435;BMP180;56625;54.322;18.582;2024-02-21T06:37:03;100606.40;;;6.70
69435;BMP180;56625;54.322;18.582;2024-02-21T06:39:31;100611.00;;;6.72
69435;BMP180;56625;54.322;18.582;2024-02-21T06:41:59;100611.00;;;6.80
69435;BMP180;56625;54.322;18.582;2024-02-21T06:44:30;100615.80;;;6.80
69435;BMP180;56625;54.322;18.582;2024-02-21T06:46:59;100614.20;;;6.80
69435;BMP180;56625;54.322;18.582;2024-02-21T06:49:28;100623.00;;;6.80
69435;BMP180;56625;54.322;18.582;2024-02-21T06:51:56;100625.40;;;6.80
69435;BMP180;56625;54.322;18.582;2024-02-21T06:54:24;100626.60;;;6.84
69435;BMP180;56625;54.322;18.582;2024-02-21T06:56:52;100630.00;;;6.84
69435;BMP180;56625;54.322;18.582;2024-02-21T06:59:20;100626.20;;;6.90
69435;BMP180;56625;54.322;18.582;2024-02-21T07:01:52;100625.80;;;6.90
69435;BMP180;56625;54.322;18.582;2024-02-21T07:04:20;100629.00;;;6.90
69435;BMP180;56625;54.322;18.582;2024-02-21T07:06:48;100626.00;;;6.90
69435;BMP180;56625;54.322;18.582;2024-02-21T07:09:16;100620.40;;;6.90
69435;BMP180;56625;54.322;18.582;2024-02-21T07:11:44;100621.00;;;6.90
69435;BMP180;56625;54.322;18.582;2024-02-21T07:14:15;100613.60;;;6.90
69435;BMP180;56625;54.322;18.582;2024-02-21T07:16:45;100611.40;;;6.90
69435;BMP180;56625;54.322;18.582;2024-02-21T07:19:13;100607.20;;;6.90
69435;BMP180;56625;54.322;18.582;2024-02-21T07:21:42;100604.80;;;6.90
69435;BMP180;56625;54.322;18.582;2024-02-21T07:24:10;100596.00;;;7.00
69435;BMP180;56625;54.322;18.582;2024-02-21T07:26:42;100595.00;;;7.00
69435;BMP180;56625;54.322;18.582;2024-02-21T07:29:11;100595.40;;;7.00
69435;BMP180;56625;54.322;18.582;2024-02-21T07:31:43;100605.80;;;7.00
69435;BMP180;56625;54.322;18.582;2024-02-21T07:34:12;100606.80;;;7.00
69435;BMP180;56625;54.322;18.582;2024-02-21T07:36:40;100602.40;;;7.00
69435;BMP180;56625;54.322;18.582;2024-02-21T07:39:10;100601.80;;;7.00
69435;BMP180;56625;54.322;18.582;2024-02-21T07:41:39;100602.20;;;7.00
69435;BMP180;56625;54.322;18.582;2024-02-21T07:44:08;100598.20;;;7.00
69435;BMP180;56625;54.322;18.582;2024-02-21T07:46:36;100582.80;;;7.00
69435;BMP180;56625;54.322;18.582;2024-02-21T07:49:04;100583.00;;;7.00
69435;BMP180;56625;54.322;18.582;2024-02-21T07:51:32;100586.40;;;7.00
69435;BMP180;56625;54.322;18.582;2024-02-21T07:54:00;100578.80;;;7.00
69435;BMP180;56625;54.322;18.582;2024-02-21T07:56:28;100572.00;;;6.94
69435;BMP180;56625;54.322;18.582;2024-02-21T07:58:57;100568.60;;;6.98
69435;BMP180;56625;54.322;18.582;2024-02-21T08:01:25;100562.80;;;6.90
69435;BMP180;56625;54.322;18.582;2024-02-21T08:03:54;100557.40;;;6.90
69435;BMP180;56625;54.322;18.582;2024-02-21T08:06:22;100550.40;;;6.96
69435;BMP180;56625;54.322;18.582;2024-02-21T08:08:50;100542.80;;;7.00
69435;BMP180;56625;54.322;18.582;2024-02-21T08:11:19;100546.80;;;7.00
69435;BMP180;56625;54.322;18.582;2024-02-21T08:13:47;100546.00;;;6.98
69435;BMP180;56625;54.322;18.582;2024-02-21T08:16:15;100546.60;;;7.00
69435;BMP180;56625;54.322;18.582;2024-02-21T08:18:44;100538.80;;;7.00
69435;BMP180;56625;54.322;18.582;2024-02-21T08:21:12;100534.40;;;7.00
69435;BMP180;56625;54.322;18.582;2024-02-21T08:23:40;100532.40;;;7.00
69435;BMP180;56625;54.322;18.582;2024-02-21T08:26:08;100530.00;;;7.00
69435;BMP180;56625;54.322;18.582;2024-02-21T08:28:37;100518.80;;;7.10
69435;BMP180;56625;54.322;18.582;2024-02-21T08:31:05;100529.00;;;7.10
69435;BMP180;56625;54.322;18.582;2024-02-21T08:33:33;100520.80;;;7.10
69435;BMP180;56625;54.322;18.582;2024-02-21T08:36:02;100510.20;;;7.10
69435;BMP180;56625;54.322;18.582;2024-02-21T08:38:31;100512.80;;;7.10
69435;BMP180;56625;54.322;18.582;2024-02-21T08:40:59;100511.80;;;7.10
69435;BMP180;56625;54.322;18.582;2024-02-21T08:43:28;100503.60;;;7.16
69435;BMP180;56625;54.322;18.582;2024-02-21T08:45:56;100500.60;;;7.10
69435;BMP180;56625;54.322;18.582;2024-02-21T08:48:24;100504.60;;;7.14
69435;BMP180;56625;54.322;18.582;2024-02-21T08:50:53;100499.40;;;7.20
69435;BMP180;56625;54.322;18.582;2024-02-21T08:53:22;100498.00;;;7.20
69435;BMP180;56625;54.322;18.582;2024-02-21T08:55:50;100494.40;;;7.20
69435;BMP180;56625;54.322;18.582;2024-02-21T08:58:18;100492.40;;;7.24
69435;BMP180;56625;54.322;18.582;2024-02-21T09:00:49;100482.20;;;7.30
69435;BMP180;56625;54.322;18.582;2024-02-21T09:03:18;100480.00;;;7.30
69435;BMP180;56625;54.322;18.582;2024-02-21T09:05:48;100485.60;;;7.30
69435;BMP180;56625;54.322;18.582;2024-02-21T09:08:17;100484.40;;;7.30
69435;BMP180;56625;54.322;18.582;2024-02-21T09:10:46;100484.60;;;7.30
69435;BMP180;56625;54.322;18.582;2024-02-21T09:13:14;100481.00;;;7.30
69435;BMP180;56625;54.322;18.582;2024-02-21T09:15:43;100486.40;;;7.30
69435;BMP180;56625;54.322;18.582;2024-02-21T09:18:11;100480.20;;;7.30
69435;BMP180;56625;54.322;18.582;2024-02-21T09:20:39;100482.00;;;7.30
69435;BMP180;56625;54.322;18.582;2024-02-21T09:23:08;100490.40;;;7.30
69435;BMP180;56625;54.322;18.582;2024-02-21T09:25:36;100487.60;;;7.30
69435;BMP180;56625;54.322;18.582;2024-02-21T09:28:04;100489.40;;;7.30
69435;BMP180;56625;54.322;18.582;2024-02-21T09:30:34;100487.60;;;7.34
69435;BMP180;56625;54.322;18.582;2024-02-21T09:33:02;100484.00;;;7.40
69435;BMP180;56625;54.322;18.582;2024-02-21T09:35:30;100477.20;;;7.40
69435;BMP180;56625;54.322;18.582;2024-02-21T09:38:02;100481.60;;;7.40
69435;BMP180;56625;54.322;18.582;2024-02-21T09:40:32;100473.00;;;7.46
69435;BMP180;56625;54.322;18.582;2024-02-21T09:43:04;100466.00;;;7.50
69435;BMP180;56625;54.322;18.582;2024-02-21T09:45:34;100464.00;;;7.50
69435;BMP180;56625;54.322;18.582;2024-02-21T09:48:24;100456.20;;;7.50
69435;BMP180;56625;54.322;18.582;2024-02-21T09:50:57;100465.00;;;7.60
69435;BMP180;56625;54.322;18.582;2024-02-21T09:53:27;100459.20;;;7.56
69435;BMP180;56625;54.322;18.582;2024-02-21T09:55:57;100454.00;;;7.60
69435;BMP180;56625;54.322;18.582;2024-02-21T09:58:26;100449.40;;;7.60
69435;BMP180;56625;54.322;18.582;2024-02-21T10:00:56;100442.60;;;7.70
69435;BMP180;56625;54.322;18.582;2024-02-21T10:03:26;100443.20;;;7.78
69435;BMP180;56625;54.322;18.582;2024-02-21T10:05:54;100440.40;;;7.80
69435;BMP180;56625;54.322;18.582;2024-02-21T10:08:22;100443.00;;;7.80
69435;BMP180;56625;54.322;18.582;2024-02-21T10:10:50;100440.00;;;7.80
69435;BMP180;56625;54.322;18.582;2024-02-21T10:13:30;100434.00;;;7.82
69435;BMP180;56625;54.322;18.582;2024-02-21T10:16:07;100436.40;;;7.90
69435;BMP180;56625;54.322;18.582;2024-02-21T10:18:36;100425.00;;;8.00
69435;BMP180;56625;54.322;18.582;2024-02-21T10:21:07;100417.60;;;8.18
69435;BMP180;56625;54.322;18.582;2024-02-21T10:23:46;100415.00;;;8.40
69435;BMP180;56625;54.322;18.582;2024-02-21T10:26:15;100409.20;;;8.52
69435;BMP180;56625;54.322;18.582;2024-02-21T10:28:44;100410.20;;;8.60
69435;BMP180;56625;54.322;18.582;2024-02-21T10:31:26;100407.80;;;8.60
69435;BMP180;56625;54.322;18.582;2024-02-21T10:33:59;100405.20;;;8.64
69435;BMP180;56625;54.322;18.582;2024-02-21T10:36:31;100401.80;;;8.60
69435;BMP180;56625;54.322;18.582;2024-02-21T10:38:59;100399.00;;;8.62
69435;BMP180;56625;54.322;18.582;2024-02-21T10:41:28;100395.20;;;8.70
69435;BMP180;56625;54.322;18.582;2024-02-21T10:44:04;100391.40;;;8.70
69435;BMP180;56625;54.322;18.582;2024-02-21T10:46:36;100386.60;;;8.70
69435;BMP180;56625;54.322;18.582;2024-02-21T10:49:25;100387.40;;;8.70
69435;BMP180;56625;54.322;18.582;2024-02-21T10:52:28;100385.00;;;8.70
69435;BMP180;56625;54.322;18.582;2024-02-21T10:55:19;100384.80;;;8.70
69435;BMP180;56625;54.322;18.582;2024-02-21T10:57:49;100379.80;;;8.62
69435;BMP180;56625;54.322;18.582;2024-02-21T11:00:18;100378.00;;;8.60
69435;BMP180;56625;54.322;18.582;2024-02-21T11:02:47;100379.00;;;8.60
69435;BMP180;56625;54.322;18.582;2024-02-21T11:05:17;100376.40;;;8.60
69435;BMP180;56625;54.322;18.582;2024-02-21T11:07:55;100375.60;;;8.60
69435;BMP180;56625;54.322;18.582;2024-02-21T11:10:26;100376.20;;;8.60
69435;BMP180;56625;54.322;18.582;2024-02-21T11:13:10;100370.60;;;8.60
69435;BMP180;56625;54.322;18.582;2024-02-21T11:15:39;100368.00;;;8.60
69435;BMP180;56625;54.322;18.582;2024-02-21T11:18:07;100372.80;;;8.60
69435;BMP180;56625;54.322;18.582;2024-02-21T11:20:37;100363.00;;;8.60
69435;BMP180;56625;54.322;18.582;2024-02-21T11:23:06;100364.60;;;8.60
69435;BMP180;56625;54.322;18.582;2024-02-21T11:25:35;100357.00;;;8.60
69435;BMP180;56625;54.322;18.582;2024-02-21T11:28:04;100356.00;;;8.60
69435;BMP180;56625;54.322;18.582;2024-02-21T11:30:36;100352.40;;;8.60
69435;BMP180;56625;54.322;18.582;2024-02-21T11:33:06;100348.20;;;8.50
69435;BMP180;56625;54.322;18.582;2024-02-21T11:35:36;100349.80;;;8.50
69435;BMP180;56625;54.322;18.582;2024-02-21T11:53:42;100330.60;;;8.82
69435;BMP180;56625;54.322;18.582;2024-02-21T11:56:27;100321.40;;;8.80
69435;BMP180;56625;54.322;18.582;2024-02-21T11:58:59;100319.20;;;8.80
69435;BMP180;56625;54.322;18.582;2024-02-21T12:01:27;100322.40;;;8.70
69435;BMP180;56625;54.322;18.582;2024-02-21T12:03:55;100323.80;;;8.70
69435;BMP180;56625;54.322;18.582;2024-02-21T12:06:24;100328.40;;;8.60
69435;BMP180;56625;54.322;18.582;2024-02-21T12:08:57;100326.80;;;8.60
69435;BMP180;56625;54.322;18.582;2024-02-21T12:11:26;100324.40;;;8.60
69435;BMP180;56625;54.322;18.582;2024-02-21T12:14:04;100313.80;;;8.56
69435;BMP180;56625;54.322;18.582;2024-02-21T12:16:33;100308.00;;;8.50
69435;BMP180;56625;54.322;18.582;2024-02-21T12:19:03;100312.80;;;8.60
69435;BMP180;56625;54.322;18.582;2024-02-21T12:21:35;100305.80;;;8.60
69435;BMP180;56625;54.322;18.582;2024-02-21T12:24:16;100301.00;;;8.60
69435;BMP180;56625;54.322;18.582;2024-02-21T12:26:44;100308.00;;;8.60
69435;BMP180;56625;54.322;18.582;2024-02-21T12:29:12;100304.00;;;8.66
69435;BMP180;56625;54.322;18.582;2024-02-21T12:31:41;100291.00;;;8.70
69435;BMP180;56625;54.322;18.582;2024-02-21T12:34:11;100294.60;;;8.70
69435;BMP180;56625;54.322;18.582;2024-02-21T12:36:44;100274.80;;;8.70
69435;BMP180;56625;54.322;18.582;2024-02-21T12:39:15;100270.20;;;8.70
69435;BMP180;56625;54.322;18.582;2024-02-21T12:41:44;100268.60;;;8.70
69435;BMP180;56625;54.322;18.582;2024-02-21T12:44:13;100258.80;;;8.70
69435;BMP180;56625;54.322;18.582;2024-02-21T12:46:42;100254.00;;;8.70
69435;BMP180;56625;54.322;18.582;2024-02-21T12:49:10;100245.00;;;8.70
69435;BMP180;56625;54.322;18.582;2024-02-21T12:51:38;100239.80;;;8.70
69435;BMP180;56625;54.322;18.582;2024-02-21T12:54:07;100239.80;;;8.70
69435;BMP180;56625;54.322;18.582;2024-02-21T12:56:39;100235.40;;;8.70
69435;BMP180;56625;54.322;18.582;2024-02-21T12:59:08;100236.20;;;8.70
69435;BMP180;56625;54.322;18.582;2024-02-21T13:01:39;100232.40;;;8.60
69435;BMP180;56625;54.322;18.582;2024-02-21T13:04:07;100230.20;;;8.60
69435;BMP180;56625;54.322;18.582;2024-02-21T13:06:35;100231.20;;;8.60
69435;BMP180;56625;54.322;18.582;2024-02-21T13:09:04;100226.60;;;8.60
69435;BMP180;56625;54.322;18.582;2024-02-21T13:11:36;100220.40;;;8.60
69435;BMP180;56625;54.322;18.582;2024-02-21T13:14:06;100222.60;;;8.70
69435;BMP180;56625;54.322;18.582;2024-02-21T13:16:34;100216.80;;;8.90
69435;BMP180;56625;54.322;18.582;2024-02-21T13:19:08;100209.20;;;9.04
69435;BMP180;56625;54.322;18.582;2024-02-21T13:21:36;100198.00;;;9.20
69435;BMP180;56625;54.322;18.582;2024-02-21T13:24:05;100198.20;;;9.30
69435;BMP180;56625;54.322;18.582;2024-02-21T13:26:34;100195.80;;;9.40
69435;BMP180;56625;54.322;18.582;2024-02-21T13:29:02;100194.40;;;9.50
69435;BMP180;56625;54.322;18.582;2024-02-21T13:31:30;100198.00;;;9.58
69435;BMP180;56625;54.322;18.582;2024-02-21T13:33:59;100201.00;;;9.70
69435;BMP180;56625;54.322;18.582;2024-02-21T13:36:29;100195.80;;;9.74
69435;BMP180;56625;54.322;18.582;2024-02-21T13:38:57;100188.00;;;9.80
69435;BMP180;56625;54.322;18.582;2024-02-21T13:41:25;100181.60;;;9.80
69435;BMP180;56625;54.322;18.582;2024-02-21T13:43:54;100179.40;;;9.90
69435;BMP180;56625;54.322;18.582;2024-02-21T13:46:22;100179.40;;;9.90
69435;BMP180;56625;54.322;18.582;2024-02-21T13:49:02;100181.00;;;9.90
69435;BMP180;56625;54.322;18.582;2024-02-21T13:51:34;100180.40;;;9.90
69435;BMP180;56625;54.322;18.582;2024-02-21T13:54:04;100176.40;;;9.88
69435;BMP180;56625;54.322;18.582;2024-02-21T13:56:33;100179.60;;;9.80
69435;BMP180;56625;54.322;18.582;2024-02-21T13:59:02;100175.00;;;9.80
69435;BMP180;56625;54.322;18.582;2024-02-21T14:01:32;100175.80;;;9.78
69435;BMP180;56625;54.322;18.582;2024-02-21T14:04:01;100179.80;;;9.70
69435;BMP180;56625;54.322;18.582;2024-02-21T14:06:29;100179.20;;;9.70
69435;BMP180;56625;54.322;18.582;2024-02-21T14:08:58;100172.80;;;9.62
69435;BMP180;56625;54.322;18.582;2024-02-21T14:11:26;100173.40;;;9.70
69435;BMP180;56625;54.322;18.582;2024-02-21T14:13:58;100172.00;;;9.70
69435;BMP180;56625;54.322;18.582;2024-02-21T14:16:27;100167.20;;;9.70
69435;BMP180;56625;54.322;18.582;2024-02-21T14:18:55;100165.80;;;9.80
69435;BMP180;56625;54.322;18.582;2024-02-21T14:21:23;100169.00;;;9.70
69435;BMP180;56625;54.322;18.582;2024-02-21T14:23:51;100169.80;;;9.62